Terminal Aerodrome Forecast
Issued by NWS

Home | Current Version | Previous Version | Text Only | Print | Product List | Glossary On
Versions: 1 2 3 4 5 6 7 8 9 10 11 12 13 14 15 16 17 18 19 20 21 22 23 24 25 26 27
000
FTUS46 KOTX 211139
TAFMWH
TAF
KMWH 211139Z 2112/2212 15007KT 4SM BR SCT001
      TEMPO 2112/2116 1SM BR BKN001
     FM211800 21008KT P6SM SCT040 BKN120
     FM220900 14009KT P6SM VCSH BKN050 OVC080=

USA.gov is the U.S. government's official web portal to all federal, state and local government web resources and services.